createdAt,value
2023-09-17T00:02:33.790Z,31.33
2023-09-17T00:07:35.646Z,28.98
2023-09-17T00:12:43.336Z,31.85
2023-09-17T00:17:45.273Z,27.83
2023-09-17T00:22:47.337Z,24.65
2023-09-17T00:27:53.952Z,30.92
2023-09-17T00:32:55.801Z,29.50
2023-09-17T00:38:00.651Z,26.55
2023-09-17T00:43:05.190Z,27.38
2023-09-17T00:48:07.897Z,28.33
2023-09-17T00:53:09.972Z,32.25
2023-09-17T00:58:14.143Z,29.60
2023-09-17T01:03:16.014Z,25.15
2023-09-17T01:08:25.407Z,26.92
2023-09-17T01:13:27.523Z,29.27
2023-09-17T01:18:30.140Z,26.27
2023-09-17T01:23:50.983Z,25.08
2023-09-17T01:28:54.863Z,24.38
2023-09-17T01:33:59.226Z,33.33
2023-09-17T01:39:09.226Z,25.58
2023-09-17T01:44:11.516Z,29.42
2023-09-17T01:49:18.059Z,25.98
2023-09-17T01:54:20.280Z,21.77
2023-09-17T01:59:22.039Z,20.02
2023-09-17T02:04:23.839Z,25.00
2023-09-17T02:09:26.475Z,30.55
2023-09-17T02:14:28.404Z,26.98
2023-09-17T02:19:32.294Z,25.13
2023-09-17T02:24:34.147Z,24.33
2023-09-17T02:29:38.168Z,23.05
2023-09-17T02:34:42.233Z,23.77
2023-09-17T02:39:44.082Z,26.50
2023-09-17T02:44:46.161Z,27.10
2023-09-17T02:49:47.944Z,23.80
2023-09-17T02:54:52.090Z,22.67
2023-09-17T02:59:58.762Z,23.10
2023-09-17T03:05:02.619Z,23.17
2023-09-17T03:10:12.298Z,22.05
2023-09-17T03:15:18.370Z,24.83
2023-09-17T03:20:23.582Z,23.27
2023-09-17T03:25:28.084Z,21.48
2023-09-17T03:30:32.232Z,18.63
2023-09-17T03:35:39.839Z,29.95
2023-09-17T03:40:42.555Z,24.52
2023-09-17T03:45:49.109Z,23.42
2023-09-17T03:50:50.974Z,23.45
2023-09-17T03:55:55.584Z,20.30
2023-09-17T04:00:57.479Z,22.25
2023-09-17T04:05:59.288Z,26.63
2023-09-17T04:11:01.223Z,20.90
2023-09-17T04:16:03.021Z,18.75
2023-09-17T04:21:05.010Z,20.27
2023-09-17T04:26:16.436Z,20.83
2023-09-17T04:31:18.838Z,24.20
2023-09-17T04:36:23.427Z,25.42
2023-09-17T04:41:26.895Z,23.45
2023-09-17T04:46:33.456Z,20.77
2023-09-17T04:51:38.597Z,20.63
2023-09-17T04:56:40.578Z,19.40
2023-09-17T05:01:42.877Z,22.05
2023-09-17T05:06:47.782Z,19.48
2023-09-17T05:11:52.086Z,20.38
2023-09-17T05:16:56.472Z,22.73
2023-09-17T05:22:01.312Z,23.40
2023-09-17T05:27:03.723Z,23.27
2023-09-17T05:32:10.623Z,22.55
2023-09-17T05:37:13.194Z,23.20
2023-09-17T05:42:14.977Z,23.88
2023-09-17T05:47:16.934Z,23.10
2023-09-17T05:52:19.671Z,23.55
2023-09-17T05:57:24.277Z,26.90
2023-09-17T06:02:32.516Z,26.60
2023-09-17T06:07:34.420Z,28.25
2023-09-17T06:12:38.864Z,29.10
2023-09-17T06:17:45.432Z,26.55
2023-09-17T06:22:49.355Z,28.50
2023-09-17T06:27:51.733Z,29.52
2023-09-17T06:32:54.233Z,27.77
2023-09-17T06:37:56.288Z,35.42
2023-09-17T06:42:58.231Z,38.00
2023-09-17T06:48:00.334Z,29.50
2023-09-17T06:53:05.406Z,35.25
2023-09-17T06:58:10.146Z,32.35
2023-09-17T07:03:14.642Z,33.97
2023-09-17T07:08:17.007Z,31.52
2023-09-17T07:13:19.032Z,47.97
2023-09-17T07:18:22.867Z,43.97
2023-09-17T07:23:25.147Z,53.53
2023-09-17T07:28:29.308Z,59.03
2023-09-17T07:33:32.224Z,58.60
2023-09-17T07:38:35.198Z,65.47
2023-09-17T07:43:37.073Z,60.67
2023-09-17T07:48:42.449Z,59.30
2023-09-17T07:53:44.441Z,58.72
2023-09-17T07:58:49.238Z,53.60
2023-09-17T08:03:56.956Z,49.22
2023-09-17T08:09:01.336Z,50.28
2023-09-17T08:14:05.368Z,40.85
2023-09-17T08:19:07.874Z,40.03
2023-09-17T08:24:09.713Z,35.85
2023-09-17T08:29:11.440Z,34.42
2023-09-17T08:34:15.701Z,32.80
2023-09-17T08:39:17.677Z,32.30
2023-09-17T08:44:20.194Z,31.92
2023-09-17T08:49:24.681Z,31.30
2023-09-17T08:54:34.546Z,34.38
2023-09-17T08:59:40.101Z,31.67
2023-09-17T09:04:41.957Z,27.98
2023-09-17T09:09:49.298Z,23.00
2023-09-17T09:14:57.519Z,20.60
2023-09-17T09:20:05.140Z,18.85
2023-09-17T09:25:12.050Z,19.55
2023-09-17T09:30:17.294Z,17.45
2023-09-17T09:35:20.107Z,19.17
2023-09-17T09:40:23.005Z,19.20
2023-09-17T09:45:24.897Z,21.25
2023-09-17T09:50:28.598Z,21.63
2023-09-17T09:55:35.994Z,26.67
2023-09-17T10:00:45.966Z,30.63
2023-09-17T10:05:48.013Z,26.08
2023-09-17T10:10:52.710Z,29.02
2023-09-17T10:15:54.829Z,28.75
2023-09-17T10:21:07.346Z,31.08
2023-09-17T10:26:11.402Z,27.55
2023-09-17T10:31:16.648Z,25.63
2023-09-17T10:36:18.667Z,26.58
2023-09-17T10:41:25.240Z,23.63
2023-09-17T10:46:32.449Z,21.15
2023-09-17T10:51:38.478Z,20.65
2023-09-17T10:56:43.694Z,17.55
2023-09-17T11:01:46.041Z,16.25
2023-09-17T11:06:53.929Z,13.88
2023-09-17T11:11:55.831Z,13.15
2023-09-17T11:16:58.377Z,11.73
2023-09-17T11:22:03.352Z,10.00
2023-09-17T11:27:13.422Z,8.80
2023-09-17T11:32:22.230Z,8.50
2023-09-17T11:37:24.258Z,8.50
2023-09-17T11:42:27.927Z,8.30
2023-09-17T11:47:32.828Z,8.60
2023-09-17T11:52:37.004Z,8.40
2023-09-17T11:57:39.212Z,9.02
2023-09-17T12:02:43.069Z,8.43
2023-09-17T12:07:55.217Z,6.93
2023-09-17T12:13:00.759Z,5.80
2023-09-17T12:18:02.919Z,6.85
2023-09-17T12:23:14.259Z,6.18
2023-09-17T12:28:16.773Z,7.00
2023-09-17T12:33:18.876Z,6.65
2023-09-17T12:38:20.685Z,6.35
2023-09-17T12:43:24.794Z,5.60
2023-09-17T12:48:30.273Z,6.57
2023-09-17T12:53:32.293Z,6.25
2023-09-17T12:58:34.450Z,5.70
2023-09-17T13:03:46.400Z,5.22
2023-09-17T13:08:53.897Z,4.57
2023-09-17T13:13:58.472Z,4.82
2023-09-17T13:19:00.882Z,4.32
2023-09-17T13:24:05.095Z,4.47
2023-09-17T13:29:11.305Z,4.00
2023-09-17T13:34:18.326Z,3.53
2023-09-17T13:39:20.600Z,3.85
2023-09-17T13:44:22.386Z,4.18
2023-09-17T13:49:27.069Z,3.45
2023-09-17T13:54:31.441Z,3.30
2023-09-17T13:59:40.511Z,3.30
2023-09-17T14:04:44.825Z,3.55
2023-09-17T14:09:49.599Z,4.78
2023-09-17T14:14:51.468Z,4.05
2023-09-17T14:19:53.721Z,4.80
2023-09-17T14:24:55.600Z,4.32
2023-09-17T14:29:57.473Z,4.13
2023-09-17T14:34:59.432Z,4.60
2023-09-17T14:40:01.332Z,3.60
2023-09-17T14:45:05.164Z,4.25
2023-09-17T14:50:11.296Z,4.00
2023-09-17T14:55:14.074Z,3.40
2023-09-17T15:00:16.179Z,3.78
2023-09-17T15:05:18.200Z,3.40
2023-09-17T15:10:25.457Z,7.93
2023-09-17T15:15:29.542Z,4.03
2023-09-17T15:20:31.280Z,4.25
2023-09-17T15:25:33.296Z,4.57
2023-09-17T15:30:35.128Z,4.43
2023-09-17T15:35:37.847Z,4.88
2023-09-17T15:40:43.268Z,5.70
2023-09-17T15:45:45.407Z,5.15
2023-09-17T15:50:47.690Z,5.70
2023-09-17T15:55:54.258Z,5.40
2023-09-17T16:00:58.322Z,5.00
2023-09-17T16:06:01.151Z,5.68
2023-09-17T16:11:03.470Z,5.75
2023-09-17T16:16:09.080Z,6.55
2023-09-17T16:21:14.571Z,6.40
2023-09-17T16:26:19.127Z,6.60
2023-09-17T16:31:20.947Z,8.10
2023-09-17T16:36:22.756Z,7.20
2023-09-17T16:41:24.847Z,7.57
2023-09-17T16:46:27.399Z,6.32
2023-09-17T16:51:29.234Z,7.50
2023-09-17T16:56:33.358Z,8.23
2023-09-17T17:01:40.539Z,7.85
2023-09-17T17:06:42.563Z,7.75
2023-09-17T17:11:46.483Z,10.00
2023-09-17T17:16:53.548Z,8.20
2023-09-17T17:21:57.867Z,7.82
2023-09-17T17:26:59.840Z,7.68
2023-09-17T17:32:04.293Z,7.38
2023-09-17T17:37:06.701Z,8.20
2023-09-17T17:42:10.650Z,7.75
2023-09-17T17:47:12.479Z,7.47
2023-09-17T17:52:16.551Z,8.63
2023-09-17T17:57:21.121Z,8.85
2023-09-17T18:02:23.257Z,8.75
2023-09-17T18:07:26.764Z,9.35
2023-09-17T18:12:28.729Z,9.15
2023-09-17T18:17:31.084Z,8.70
2023-09-17T18:22:35.701Z,8.70
2023-09-17T18:27:40.539Z,6.30
2023-09-17T18:32:45.105Z,10.45
2023-09-17T18:37:46.914Z,10.35
2023-09-17T18:42:51.320Z,8.90
2023-09-17T18:47:53.070Z,8.77
2023-09-17T18:52:57.262Z,8.07
2023-09-17T18:58:01.506Z,8.50
2023-09-17T19:03:05.646Z,9.00
2023-09-17T19:08:12.065Z,9.95
2023-09-17T19:13:14.673Z,8.55
2023-09-17T19:18:21.090Z,9.07
2023-09-17T19:23:27.985Z,9.30
2023-09-17T19:28:30.121Z,10.50
2023-09-17T19:33:35.142Z,11.55
2023-09-17T19:38:39.682Z,10.85
2023-09-17T19:43:43.004Z,10.68
2023-09-17T19:48:50.909Z,10.88
2023-09-17T19:53:53.033Z,11.00
2023-09-17T19:58:56.573Z,10.65
2023-09-17T20:04:01.523Z,10.73
2023-09-17T20:09:03.715Z,10.40
2023-09-17T20:14:08.022Z,11.60
2023-09-17T20:19:10.008Z,10.85
2023-09-17T20:24:14.139Z,10.65
2023-09-17T20:29:15.936Z,10.70
2023-09-17T20:34:24.328Z,10.18
2023-09-17T20:39:27.462Z,11.00
2023-09-17T20:44:32.067Z,11.45
2023-09-17T20:49:34.181Z,10.45
2023-09-17T20:54:36.135Z,10.63
2023-09-17T20:59:38.022Z,9.35
2023-09-17T21:04:46.533Z,10.13
2023-09-17T21:09:48.782Z,11.40
2023-09-17T21:14:52.612Z,12.00
2023-09-17T21:19:59.112Z,11.85
2023-09-17T21:25:04.442Z,9.15
2023-09-17T21:30:12.734Z,11.95
2023-09-17T21:35:14.857Z,11.95
2023-09-17T21:40:18.245Z,12.40
2023-09-17T21:45:19.970Z,13.07
2023-09-17T21:50:21.800Z,13.02
2023-09-17T21:55:28.961Z,13.52
2023-09-17T22:00:32.983Z,11.88
2023-09-17T22:05:40.141Z,14.38
2023-09-17T22:10:42.130Z,14.57
2023-09-17T22:15:44.711Z,14.05
2023-09-17T22:20:53.900Z,14.73
2023-09-17T22:25:58.256Z,13.38
2023-09-17T22:31:11.070Z,13.95
2023-09-17T22:36:15.687Z,11.70
2023-09-17T22:41:25.684Z,14.38
2023-09-17T22:46:31.514Z,11.27
2023-09-17T22:51:35.942Z,10.88
2023-09-17T22:56:37.781Z,15.77
2023-09-17T23:01:42.092Z,10.32
2023-09-17T23:06:43.940Z,12.63
2023-09-17T23:11:45.810Z,13.57
2023-09-17T23:16:53.137Z,11.20
2023-09-17T23:21:55.173Z,14.45
2023-09-17T23:27:03.831Z,14.88
2023-09-17T23:32:06.122Z,15.63
2023-09-17T23:37:08.250Z,15.82
2023-09-17T23:42:11.774Z,16.98
2023-09-17T23:47:15.850Z,18.00
2023-09-17T23:52:19.958Z,14.70
2023-09-17T23:57:23.776Z,15.27
